sensor_id;sensor_type;location;lat;lon;timestamp;temperature;humidity
74534;SHT31;63012;51.096;-115.366;2023-05-10T00:00:54;19.96;44.38
74534;SHT31;63012;51.096;-115.366;2023-05-10T00:03:21;19.96;44.37
74534;SHT31;63012;51.096;-115.366;2023-05-10T00:05:49;19.97;44.50
74534;SHT31;63012;51.096;-115.366;2023-05-10T00:08:16;19.97;44.71
74534;SHT31;63012;51.096;-115.366;2023-05-10T00:10:43;19.97;44.87
74534;SHT31;63012;51.096;-115.366;2023-05-10T00:13:10;19.98;45.07
74534;SHT31;63012;51.096;-115.366;2023-05-10T00:15:37;19.98;45.19
74534;SHT31;63012;51.096;-115.366;2023-05-10T00:18:04;19.98;45.37
74534;SHT31;63012;51.096;-115.366;2023-05-10T00:20:31;19.99;45.55
74534;SHT31;63012;51.096;-115.366;2023-05-10T00:22:58;19.99;45.66
74534;SHT31;63012;51.096;-115.366;2023-05-10T00:25:25;20.00;45.78
74534;SHT31;63012;51.096;-115.366;2023-05-10T00:27:52;20.00;45.80
74534;SHT31;63012;51.096;-115.366;2023-05-10T00:30:22;20.01;45.88
74534;SHT31;63012;51.096;-115.366;2023-05-10T00:32:49;20.01;46.06
74534;SHT31;63012;51.096;-115.366;2023-05-10T00:35:17;20.01;45.91
74534;SHT31;63012;51.096;-115.366;2023-05-10T00:37:44;20.02;45.90
74534;SHT31;63012;51.096;-115.366;2023-05-10T00:40:11;20.03;45.87
74534;SHT31;63012;51.096;-115.366;2023-05-10T00:42:38;20.03;45.81
74534;SHT31;63012;51.096;-115.366;2023-05-10T00:45:05;20.02;45.90
74534;SHT31;63012;51.096;-115.366;2023-05-10T00:47:33;20.03;46.30
74534;SHT31;63012;51.096;-115.366;2023-05-10T00:50:01;20.04;46.66
74534;SHT31;63012;51.096;-115.366;2023-05-10T00:52:28;20.05;46.87
74534;SHT31;63012;51.096;-115.366;2023-05-10T00:54:56;20.05;46.96
74534;SHT31;63012;51.096;-115.366;2023-05-10T00:57:24;20.05;47.07
74534;SHT31;63012;51.096;-115.366;2023-05-10T00:59:51;20.06;47.10
74534;SHT31;63012;51.096;-115.366;2023-05-10T01:02:18;20.06;47.02
74534;SHT31;63012;51.096;-115.366;2023-05-10T01:04:45;20.06;46.89
74534;SHT31;63012;51.096;-115.366;2023-05-10T01:07:13;20.07;46.89
74534;SHT31;63012;51.096;-115.366;2023-05-10T01:09:40;20.06;46.96
74534;SHT31;63012;51.096;-115.366;2023-05-10T01:12:07;20.07;46.98
74534;SHT31;63012;51.096;-115.366;2023-05-10T01:14:34;20.07;46.91
74534;SHT31;63012;51.096;-115.366;2023-05-10T01:17:01;20.07;46.88
74534;SHT31;63012;51.096;-115.366;2023-05-10T01:19:30;20.08;46.87
74534;SHT31;63012;51.096;-115.366;2023-05-10T01:24:56;20.08;46.74
74534;SHT31;63012;51.096;-115.366;2023-05-10T01:31:02;20.09;46.59
74534;SHT31;63012;51.096;-115.366;2023-05-10T01:39:45;20.08;46.30
74534;SHT31;63012;51.096;-115.366;2023-05-10T01:42:23;20.07;46.32
74534;SHT31;63012;51.096;-115.366;2023-05-10T01:47:50;20.08;46.57
74534;SHT31;63012;51.096;-115.366;2023-05-10T01:50:33;20.08;46.60
74534;SHT31;63012;51.096;-115.366;2023-05-10T01:53:06;20.08;46.60
74534;SHT31;63012;51.096;-115.366;2023-05-10T01:55:39;20.09;46.57
74534;SHT31;63012;51.096;-115.366;2023-05-10T01:58:25;20.08;46.48
74534;SHT31;63012;51.096;-115.366;2023-05-10T02:00:59;20.08;46.43
74534;SHT31;63012;51.096;-115.366;2023-05-10T02:03:30;20.07;46.40
74534;SHT31;63012;51.096;-115.366;2023-05-10T02:05:59;20.09;46.36
74534;SHT31;63012;51.096;-115.366;2023-05-10T02:08:27;20.08;46.31
74534;SHT31;63012;51.096;-115.366;2023-05-10T02:10:56;20.08;46.30
74534;SHT31;63012;51.096;-115.366;2023-05-10T02:13:24;20.07;46.29
74534;SHT31;63012;51.096;-115.366;2023-05-10T02:15:55;20.07;46.22
74534;SHT31;63012;51.096;-115.366;2023-05-10T02:18:24;20.08;46.19
74534;SHT31;63012;51.096;-115.366;2023-05-10T02:20:53;20.06;46.18
74534;SHT31;63012;51.096;-115.366;2023-05-10T02:23:22;20.06;46.01
74534;SHT31;63012;51.096;-115.366;2023-05-10T02:25:51;20.05;46.01
74534;SHT31;63012;51.096;-115.366;2023-05-10T02:28:21;20.05;45.95
74534;SHT31;63012;51.096;-115.366;2023-05-10T02:30:50;20.05;45.81
74534;SHT31;63012;51.096;-115.366;2023-05-10T02:33:18;20.04;45.73
74534;SHT31;63012;51.096;-115.366;2023-05-10T02:35:47;20.05;45.71
74534;SHT31;63012;51.096;-115.366;2023-05-10T02:38:16;20.03;45.87
74534;SHT31;63012;51.096;-115.366;2023-05-10T02:40:48;20.03;45.84
74534;SHT31;63012;51.096;-115.366;2023-05-10T02:43:16;20.02;45.81
74534;SHT31;63012;51.096;-115.366;2023-05-10T02:45:46;20.02;45.80
74534;SHT31;63012;51.096;-115.366;2023-05-10T02:48:14;20.01;45.50
74534;SHT31;63012;51.096;-115.366;2023-05-10T02:50:43;20.02;45.24
74534;SHT31;63012;51.096;-115.366;2023-05-10T02:53:18;20.00;45.04
74534;SHT31;63012;51.096;-115.366;2023-05-10T02:55:54;20.00;44.97
74534;SHT31;63012;51.096;-115.366;2023-05-10T02:58:26;19.98;44.94
74534;SHT31;63012;51.096;-115.366;2023-05-10T03:00:53;19.99;44.90
74534;SHT31;63012;51.096;-115.366;2023-05-10T03:03:20;19.98;44.88
74534;SHT31;63012;51.096;-115.366;2023-05-10T03:05:47;19.97;44.83
74534;SHT31;63012;51.096;-115.366;2023-05-10T03:08:14;19.97;44.80
74534;SHT31;63012;51.096;-115.366;2023-05-10T03:10:46;19.97;44.69
74534;SHT31;63012;51.096;-115.366;2023-05-10T03:13:53;19.95;44.65
74534;SHT31;63012;51.096;-115.366;2023-05-10T03:16:35;19.95;44.66
74534;SHT31;63012;51.096;-115.366;2023-05-10T03:21:50;19.93;44.55
74534;SHT31;63012;51.096;-115.366;2023-05-10T03:24:20;19.93;44.52
74534;SHT31;63012;51.096;-115.366;2023-05-10T03:26:51;19.92;44.72
74534;SHT31;63012;51.096;-115.366;2023-05-10T03:29:25;19.92;44.98
74534;SHT31;63012;51.096;-115.366;2023-05-10T03:31:52;19.91;45.22
74534;SHT31;63012;51.096;-115.366;2023-05-10T03:34:23;19.90;45.31
74534;SHT31;63012;51.096;-115.366;2023-05-10T03:36:50;19.90;45.34
74534;SHT31;63012;51.096;-115.366;2023-05-10T03:39:17;19.90;45.36
74534;SHT31;63012;51.096;-115.366;2023-05-10T03:41:46;19.89;45.29
74534;SHT31;63012;51.096;-115.366;2023-05-10T03:44:13;19.88;45.31
74534;SHT31;63012;51.096;-115.366;2023-05-10T03:46:40;19.87;45.17
74534;SHT31;63012;51.096;-115.366;2023-05-10T03:49:07;19.86;45.12
74534;SHT31;63012;51.096;-115.366;2023-05-10T03:51:34;19.85;45.07
74534;SHT31;63012;51.096;-115.366;2023-05-10T03:54:01;19.85;45.37
74534;SHT31;63012;51.096;-115.366;2023-05-10T03:56:28;19.86;45.46
74534;SHT31;63012;51.096;-115.366;2023-05-10T03:58:55;19.86;45.55
74534;SHT31;63012;51.096;-115.366;2023-05-10T04:01:22;19.86;45.45
74534;SHT31;63012;51.096;-115.366;2023-05-10T04:03:49;19.86;45.32
74534;SHT31;63012;51.096;-115.366;2023-05-10T04:06:16;19.87;45.08
74534;SHT31;63012;51.096;-115.366;2023-05-10T04:08:43;19.86;45.11
74534;SHT31;63012;51.096;-115.366;2023-05-10T04:11:10;19.86;44.75
74534;SHT31;63012;51.096;-115.366;2023-05-10T04:13:39;19.87;44.37
74534;SHT31;63012;51.096;-115.366;2023-05-10T04:16:06;19.86;44.47
74534;SHT31;63012;51.096;-115.366;2023-05-10T04:18:33;19.88;44.94
74534;SHT31;63012;51.096;-115.366;2023-05-10T04:21:01;19.91;45.16
74534;SHT31;63012;51.096;-115.366;2023-05-10T04:23:28;19.92;45.17
74534;SHT31;63012;51.096;-115.366;2023-05-10T04:25:59;19.94;45.08
74534;SHT31;63012;51.096;-115.366;2023-05-10T04:28:27;19.96;45.00
74534;SHT31;63012;51.096;-115.366;2023-05-10T04:31:00;19.99;44.93
74534;SHT31;63012;51.096;-115.366;2023-05-10T04:33:33;20.01;44.97
74534;SHT31;63012;51.096;-115.366;2023-05-10T04:36:02;20.03;45.04
74534;SHT31;63012;51.096;-115.366;2023-05-10T04:38:29;20.05;44.99
74534;SHT31;63012;51.096;-115.366;2023-05-10T04:41:06;20.05;44.98
74534;SHT31;63012;51.096;-115.366;2023-05-10T04:43:34;20.07;44.98
74534;SHT31;63012;51.096;-115.366;2023-05-10T04:46:02;20.08;44.99
74534;SHT31;63012;51.096;-115.366;2023-05-10T04:48:29;20.10;44.93
74534;SHT31;63012;51.096;-115.366;2023-05-10T04:50:56;20.10;45.04
74534;SHT31;63012;51.096;-115.366;2023-05-10T04:53:23;20.10;44.87
74534;SHT31;63012;51.096;-115.366;2023-05-10T04:55:50;20.09;44.91
74534;SHT31;63012;51.096;-115.366;2023-05-10T04:58:17;20.08;44.75
74534;SHT31;63012;51.096;-115.366;2023-05-10T05:00:44;20.06;44.61
74534;SHT31;63012;51.096;-115.366;2023-05-10T05:03:16;20.03;44.51
74534;SHT31;63012;51.096;-115.366;2023-05-10T05:05:51;20.03;44.45
74534;SHT31;63012;51.096;-115.366;2023-05-10T05:08:18;20.01;44.39
74534;SHT31;63012;51.096;-115.366;2023-05-10T05:10:45;20.00;44.44
74534;SHT31;63012;51.096;-115.366;2023-05-10T05:13:15;19.99;44.39
74534;SHT31;63012;51.096;-115.366;2023-05-10T05:15:42;19.98;44.39
74534;SHT31;63012;51.096;-115.366;2023-05-10T05:18:10;19.97;44.38
74534;SHT31;63012;51.096;-115.366;2023-05-10T05:20:37;19.95;44.37
74534;SHT31;63012;51.096;-115.366;2023-05-10T05:23:04;19.94;44.38
74534;SHT31;63012;51.096;-115.366;2023-05-10T05:25:31;19.93;44.31
74534;SHT31;63012;51.096;-115.366;2023-05-10T05:27:58;19.92;44.30
74534;SHT31;63012;51.096;-115.366;2023-05-10T05:30:25;19.91;44.30
74534;SHT31;63012;51.096;-115.366;2023-05-10T05:32:52;19.90;44.26
74534;SHT31;63012;51.096;-115.366;2023-05-10T05:35:20;19.88;44.25
74534;SHT31;63012;51.096;-115.366;2023-05-10T05:37:47;19.87;44.30
74534;SHT31;63012;51.096;-115.366;2023-05-10T05:40:14;19.85;44.28
74534;SHT31;63012;51.096;-115.366;2023-05-10T05:42:41;19.85;44.20
74534;SHT31;63012;51.096;-115.366;2023-05-10T05:45:09;19.83;44.21
74534;SHT31;63012;51.096;-115.366;2023-05-10T05:47:39;19.83;44.22
74534;SHT31;63012;51.096;-115.366;2023-05-10T05:50:06;19.81;44.16
74534;SHT31;63012;51.096;-115.366;2023-05-10T05:52:33;19.80;44.13
74534;SHT31;63012;51.096;-115.366;2023-05-10T05:55:01;19.80;44.23
74534;SHT31;63012;51.096;-115.366;2023-05-10T05:57:28;19.79;44.24
74534;SHT31;63012;51.096;-115.366;2023-05-10T05:59:55;19.77;44.25
74534;SHT31;63012;51.096;-115.366;2023-05-10T06:02:23;19.75;44.30
74534;SHT31;63012;51.096;-115.366;2023-05-10T06:04:50;19.76;44.32
74534;SHT31;63012;51.096;-115.366;2023-05-10T06:07:17;19.73;44.29
74534;SHT31;63012;51.096;-115.366;2023-05-10T06:09:44;19.72;44.30
74534;SHT31;63012;51.096;-115.366;2023-05-10T06:12:11;19.72;44.30
74534;SHT31;63012;51.096;-115.366;2023-05-10T06:14:38;19.70;44.26
74534;SHT31;63012;51.096;-115.366;2023-05-10T06:17:05;19.69;44.23
74534;SHT31;63012;51.096;-115.366;2023-05-10T06:19:32;19.68;44.30
74534;SHT31;63012;51.096;-115.366;2023-05-10T06:21:59;19.68;44.30
74534;SHT31;63012;51.096;-115.366;2023-05-10T06:24:26;19.66;44.31
74534;SHT31;63012;51.096;-115.366;2023-05-10T06:26:53;19.65;44.31
74534;SHT31;63012;51.096;-115.366;2023-05-10T06:29:21;19.63;44.31
74534;SHT31;63012;51.096;-115.366;2023-05-10T06:31:48;19.63;44.40
74534;SHT31;63012;51.096;-115.366;2023-05-10T06:34:15;19.62;44.40
74534;SHT31;63012;51.096;-115.366;2023-05-10T06:36:42;19.60;44.40
74534;SHT31;63012;51.096;-115.366;2023-05-10T06:39:10;19.58;44.44
74534;SHT31;63012;51.096;-115.366;2023-05-10T06:41:37;19.57;44.39
74534;SHT31;63012;51.096;-115.366;2023-05-10T06:44:04;19.57;44.36
74534;SHT31;63012;51.096;-115.366;2023-05-10T06:46:32;19.56;44.36
74534;SHT31;63012;51.096;-115.366;2023-05-10T06:48:59;19.55;44.38
74534;SHT31;63012;51.096;-115.366;2023-05-10T06:51:26;19.53;44.35
74534;SHT31;63012;51.096;-115.366;2023-05-10T06:53:53;19.52;44.33
74534;SHT31;63012;51.096;-115.366;2023-05-10T06:56:20;19.51;44.33
74534;SHT31;63012;51.096;-115.366;2023-05-10T06:58:47;19.50;44.36
74534;SHT31;63012;51.096;-115.366;2023-05-10T07:01:14;19.49;44.28
74534;SHT31;63012;51.096;-115.366;2023-05-10T07:03:41;19.48;44.30
74534;SHT31;63012;51.096;-115.366;2023-05-10T07:06:08;19.47;44.32
74534;SHT31;63012;51.096;-115.366;2023-05-10T07:08:35;19.46;44.26
74534;SHT31;63012;51.096;-115.366;2023-05-10T07:11:03;19.45;44.23
74534;SHT31;63012;51.096;-115.366;2023-05-10T07:13:35;19.43;44.27
74534;SHT31;63012;51.096;-115.366;2023-05-10T07:16:04;19.43;44.21
74534;SHT31;63012;51.096;-115.366;2023-05-10T07:18:31;19.42;44.23
74534;SHT31;63012;51.096;-115.366;2023-05-10T07:20:59;19.41;44.27
74534;SHT31;63012;51.096;-115.366;2023-05-10T07:23:26;19.40;44.20
74534;SHT31;63012;51.096;-115.366;2023-05-10T07:25:53;19.40;44.20
74534;SHT31;63012;51.096;-115.366;2023-05-10T07:28:20;19.39;44.19
74534;SHT31;63012;51.096;-115.366;2023-05-10T07:30:48;19.37;44.20
74534;SHT31;63012;51.096;-115.366;2023-05-10T07:33:15;19.36;44.16
74534;SHT31;63012;51.096;-115.366;2023-05-10T07:35:43;19.35;44.15
74534;SHT31;63012;51.096;-115.366;2023-05-10T07:38:10;19.34;44.20
74534;SHT31;63012;51.096;-115.366;2023-05-10T07:40:37;19.33;44.10
74534;SHT31;63012;51.096;-115.366;2023-05-10T07:43:05;19.33;44.07
74534;SHT31;63012;51.096;-115.366;2023-05-10T07:45:32;19.31;44.04
74534;SHT31;63012;51.096;-115.366;2023-05-10T07:48:00;19.30;44.09
74534;SHT31;63012;51.096;-115.366;2023-05-10T07:50:26;19.29;44.04
74534;SHT31;63012;51.096;-115.366;2023-05-10T07:52:54;19.29;44.05
74534;SHT31;63012;51.096;-115.366;2023-05-10T07:55:21;19.28;44.01
74534;SHT31;63012;51.096;-115.366;2023-05-10T07:57:48;19.27;43.96
74534;SHT31;63012;51.096;-115.366;2023-05-10T08:00:18;19.27;43.98
74534;SHT31;63012;51.096;-115.366;2023-05-10T08:02:46;19.25;43.91
74534;SHT31;63012;51.096;-115.366;2023-05-10T08:05:14;19.25;43.84
74534;SHT31;63012;51.096;-115.366;2023-05-10T08:07:41;19.24;43.77
74534;SHT31;63012;51.096;-115.366;2023-05-10T08:10:08;19.23;43.66
74534;SHT31;63012;51.096;-115.366;2023-05-10T08:12:38;19.22;43.65
74534;SHT31;63012;51.096;-115.366;2023-05-10T08:15:06;19.23;43.67
74534;SHT31;63012;51.096;-115.366;2023-05-10T08:17:34;19.20;43.65
74534;SHT31;63012;51.096;-115.366;2023-05-10T08:20:01;19.20;43.64
74534;SHT31;63012;51.096;-115.366;2023-05-10T08:22:28;19.19;43.67
74534;SHT31;63012;51.096;-115.366;2023-05-10T08:24:55;19.17;43.63
74534;SHT31;63012;51.096;-115.366;2023-05-10T08:27:22;19.16;43.55
74534;SHT31;63012;51.096;-115.366;2023-05-10T08:29:49;19.15;43.43
74534;SHT31;63012;51.096;-115.366;2023-05-10T08:32:16;19.14;43.31
74534;SHT31;63012;51.096;-115.366;2023-05-10T08:34:43;19.14;43.30
74534;SHT31;63012;51.096;-115.366;2023-05-10T08:37:11;19.13;43.27
74534;SHT31;63012;51.096;-115.366;2023-05-10T08:39:38;19.11;43.28
74534;SHT31;63012;51.096;-115.366;2023-05-10T08:42:05;19.11;43.23
74534;SHT31;63012;51.096;-115.366;2023-05-10T08:44:34;19.10;43.15
74534;SHT31;63012;51.096;-115.366;2023-05-10T08:47:04;19.08;43.11
74534;SHT31;63012;51.096;-115.366;2023-05-10T08:49:32;19.06;43.14
74534;SHT31;63012;51.096;-115.366;2023-05-10T08:52:03;19.06;42.91
74534;SHT31;63012;51.096;-115.366;2023-05-10T08:54:32;19.05;42.85
74534;SHT31;63012;51.096;-115.366;2023-05-10T08:57:00;19.04;42.90
74534;SHT31;63012;51.096;-115.366;2023-05-10T08:59:27;19.03;42.79
74534;SHT31;63012;51.096;-115.366;2023-05-10T09:01:58;19.01;42.77
74534;SHT31;63012;51.096;-115.366;2023-05-10T09:04:26;19.01;42.79
74534;SHT31;63012;51.096;-115.366;2023-05-10T09:06:54;18.99;43.19
74534;SHT31;63012;51.096;-115.366;2023-05-10T09:09:22;18.97;43.77
74534;SHT31;63012;51.096;-115.366;2023-05-10T09:11:51;18.94;43.98
74534;SHT31;63012;51.096;-115.366;2023-05-10T09:14:19;18.94;44.11
74534;SHT31;63012;51.096;-115.366;2023-05-10T09:16:49;18.92;44.16
74534;SHT31;63012;51.096;-115.366;2023-05-10T09:19:16;18.91;44.17
74534;SHT31;63012;51.096;-115.366;2023-05-10T09:21:43;18.90;44.13
74534;SHT31;63012;51.096;-115.366;2023-05-10T09:24:11;18.88;44.09
74534;SHT31;63012;51.096;-115.366;2023-05-10T09:26:57;18.88;43.89
74534;SHT31;63012;51.096;-115.366;2023-05-10T09:29:24;18.88;43.65
74534;SHT31;63012;51.096;-115.366;2023-05-10T09:31:51;18.87;43.38
74534;SHT31;63012;51.096;-115.366;2023-05-10T09:34:31;18.87;43.08
74534;SHT31;63012;51.096;-115.366;2023-05-10T09:37:01;18.86;42.94
74534;SHT31;63012;51.096;-115.366;2023-05-10T09:39:30;18.87;42.72
74534;SHT31;63012;51.096;-115.366;2023-05-10T09:42:06;18.86;43.29
74534;SHT31;63012;51.096;-115.366;2023-05-10T09:44:35;18.84;43.79
74534;SHT31;63012;51.096;-115.366;2023-05-10T09:47:03;18.84;44.02
74534;SHT31;63012;51.096;-115.366;2023-05-10T09:49:30;18.82;44.14
74534;SHT31;63012;51.096;-115.366;2023-05-10T09:54:30;18.82;44.28
74534;SHT31;63012;51.096;-115.366;2023-05-10T09:56:58;18.80;44.26
74534;SHT31;63012;51.096;-115.366;2023-05-10T09:59:26;18.79;44.25
74534;SHT31;63012;51.096;-115.366;2023-05-10T10:02:00;18.78;44.20
74534;SHT31;63012;51.096;-115.366;2023-05-10T10:04:27;18.77;44.17
74534;SHT31;63012;51.096;-115.366;2023-05-10T10:07:01;18.77;44.12
74534;SHT31;63012;51.096;-115.366;2023-05-10T10:09:31;18.76;44.00
74534;SHT31;63012;51.096;-115.366;2023-05-10T10:12:00;18.77;43.92
74534;SHT31;63012;51.096;-115.366;2023-05-10T10:14:30;18.77;43.85
74534;SHT31;63012;51.096;-115.366;2023-05-10T10:16:57;18.75;43.77
74534;SHT31;63012;51.096;-115.366;2023-05-10T10:19:27;18.75;43.68
74534;SHT31;63012;51.096;-115.366;2023-05-10T10:21:55;18.75;43.59
74534;SHT31;63012;51.096;-115.366;2023-05-10T10:24:24;18.74;43.58
74534;SHT31;63012;51.096;-115.366;2023-05-10T10:26:52;18.74;43.52
74534;SHT31;63012;51.096;-115.366;2023-05-10T10:29:44;18.74;43.40
74534;SHT31;63012;51.096;-115.366;2023-05-10T10:35:28;18.72;44.18
74534;SHT31;63012;51.096;-115.366;2023-05-10T10:37:57;18.71;44.35
74534;SHT31;63012;51.096;-115.366;2023-05-10T10:40:29;18.71;44.42
74534;SHT31;63012;51.096;-115.366;2023-05-10T10:42:57;18.70;44.49
74534;SHT31;63012;51.096;-115.366;2023-05-10T10:48:39;18.68;44.47
74534;SHT31;63012;51.096;-115.366;2023-05-10T10:51:07;18.67;44.45
74534;SHT31;63012;51.096;-115.366;2023-05-10T10:53:34;18.66;44.41
74534;SHT31;63012;51.096;-115.366;2023-05-10T10:56:09;18.65;44.40
74534;SHT31;63012;51.096;-115.366;2023-05-10T10:58:40;18.64;44.33
74534;SHT31;63012;51.096;-115.366;2023-05-10T11:01:19;18.64;44.28
74534;SHT31;63012;51.096;-115.366;2023-05-10T11:04:46;18.65;44.25
74534;SHT31;63012;51.096;-115.366;2023-05-10T11:06:45;18.63;44.18
74534;SHT31;63012;51.096;-115.366;2023-05-10T11:09:12;18.63;44.20
74534;SHT31;63012;51.096;-115.366;2023-05-10T11:11:52;18.62;44.15
74534;SHT31;63012;51.096;-115.366;2023-05-10T11:14:21;18.61;44.08
74534;SHT31;63012;51.096;-115.366;2023-05-10T11:16:48;18.62;44.18
74534;SHT31;63012;51.096;-115.366;2023-05-10T11:19:16;18.60;44.46
74534;SHT31;63012;51.096;-115.366;2023-05-10T11:21:48;18.61;44.56
74534;SHT31;63012;51.096;-115.366;2023-05-10T11:24:55;18.61;44.60
74534;SHT31;63012;51.096;-115.366;2023-05-10T11:27:26;18.60;44.62
74534;SHT31;63012;51.096;-115.366;2023-05-10T11:29:53;18.60;44.62
74534;SHT31;63012;51.096;-115.366;2023-05-10T11:32:21;18.59;44.61
74534;SHT31;63012;51.096;-115.366;2023-05-10T11:34:48;18.58;44.60
74534;SHT31;63012;51.096;-115.366;2023-05-10T11:37:15;18.57;44.58
74534;SHT31;63012;51.096;-115.366;2023-05-10T11:39:45;18.56;44.55
74534;SHT31;63012;51.096;-115.366;2023-05-10T11:42:15;18.55;44.50
74534;SHT31;63012;51.096;-115.366;2023-05-10T11:44:44;18.55;44.46
74534;SHT31;63012;51.096;-115.366;2023-05-10T11:47:12;18.54;44.42
74534;SHT31;63012;51.096;-115.366;2023-05-10T11:49:43;18.54;44.40
74534;SHT31;63012;51.096;-115.366;2023-05-10T11:52:10;18.53;44.39
74534;SHT31;63012;51.096;-115.366;2023-05-10T11:54:37;18.52;44.38
74534;SHT31;63012;51.096;-115.366;2023-05-10T11:57:20;18.52;44.34
74534;SHT31;63012;51.096;-115.366;2023-05-10T11:59:54;18.51;44.35
74534;SHT31;63012;51.096;-115.366;2023-05-10T12:02:22;18.50;44.55
74534;SHT31;63012;51.096;-115.366;2023-05-10T12:04:50;18.52;44.67
74534;SHT31;63012;51.096;-115.366;2023-05-10T12:07:17;18.53;44.70
74534;SHT31;63012;51.096;-115.366;2023-05-10T12:09:55;18.52;44.71
74534;SHT31;63012;51.096;-115.366;2023-05-10T12:12:38;18.52;44.71
74534;SHT31;63012;51.096;-115.366;2023-05-10T12:15:22;18.51;44.68
74534;SHT31;63012;51.096;-115.366;2023-05-10T12:17:50;18.51;44.67
74534;SHT31;63012;51.096;-115.366;2023-05-10T12:20:18;18.50;44.61
74534;SHT31;63012;51.096;-115.366;2023-05-10T12:22:52;18.48;44.60
74534;SHT31;63012;51.096;-115.366;2023-05-10T12:25:24;18.49;44.60
74534;SHT31;63012;51.096;-115.366;2023-05-10T12:27:58;18.48;44.60
74534;SHT31;63012;51.096;-115.366;2023-05-10T12:30:29;18.47;44.55
74534;SHT31;63012;51.096;-115.366;2023-05-10T12:33:00;18.46;44.50
74534;SHT31;63012;51.096;-115.366;2023-05-10T12:35:47;18.45;44.49
74534;SHT31;63012;51.096;-115.366;2023-05-10T12:41:09;18.44;44.40
74534;SHT31;63012;51.096;-115.366;2023-05-10T12:43:42;18.44;44.58
74534;SHT31;63012;51.096;-115.366;2023-05-10T12:46:13;18.44;44.71
74534;SHT31;63012;51.096;-115.366;2023-05-10T12:48:42;18.46;44.80
74534;SHT31;63012;51.096;-115.366;2023-05-10T12:51:20;18.46;44.80
74534;SHT31;63012;51.096;-115.366;2023-05-10T12:53:47;18.46;44.80
74534;SHT31;63012;51.096;-115.366;2023-05-10T12:56:14;18.45;44.80
74534;SHT31;63012;51.096;-115.366;2023-05-10T12:58:41;18.45;44.80
74534;SHT31;63012;51.096;-115.366;2023-05-10T13:01:13;18.44;44.78
74534;SHT31;63012;51.096;-115.366;2023-05-10T13:03:40;18.43;44.77
74534;SHT31;63012;51.096;-115.366;2023-05-10T13:06:08;18.43;44.71
74534;SHT31;63012;51.096;-115.366;2023-05-10T13:08:35;18.42;44.70
74534;SHT31;63012;51.096;-115.366;2023-05-10T13:11:02;18.41;44.69
74534;SHT31;63012;51.096;-115.366;2023-05-10T13:13:29;18.41;44.65
74534;SHT31;63012;51.096;-115.366;2023-05-10T13:15:56;18.40;44.60
74534;SHT31;63012;51.096;-115.366;2023-05-10T13:18:23;18.40;44.60
74534;SHT31;63012;51.096;-115.366;2023-05-10T13:20:51;18.38;44.56
74534;SHT31;63012;51.096;-115.366;2023-05-10T13:23:20;18.37;44.50
74534;SHT31;63012;51.096;-115.366;2023-05-10T13:25:47;18.37;44.51
74534;SHT31;63012;51.096;-115.366;2023-05-10T13:28:13;18.37;44.71
74534;SHT31;63012;51.096;-115.366;2023-05-10T13:30:41;18.39;44.80
74534;SHT31;63012;51.096;-115.366;2023-05-10T13:33:08;18.40;44.83
74534;SHT31;63012;51.096;-115.366;2023-05-10T13:35:35;18.39;44.88
74534;SHT31;63012;51.096;-115.366;2023-05-10T13:38:02;18.40;44.86
74534;SHT31;63012;51.096;-115.366;2023-05-10T13:40:29;18.39;44.85
74534;SHT31;63012;51.096;-115.366;2023-05-10T13:42:56;18.40;44.83
74534;SHT31;63012;51.096;-115.366;2023-05-10T13:45:23;18.39;44.83
74534;SHT31;63012;51.096;-115.366;2023-05-10T13:47:50;18.38;44.80
74534;SHT31;63012;51.096;-115.366;2023-05-10T13:50:17;18.38;44.80
74534;SHT31;63012;51.096;-115.366;2023-05-10T13:52:44;18.37;44.75
74534;SHT31;63012;51.096;-115.366;2023-05-10T13:55:12;18.37;44.71
74534;SHT31;63012;51.096;-115.366;2023-05-10T13:57:39;18.36;44.70
74534;SHT31;63012;51.096;-115.366;2023-05-10T14:00:06;18.35;44.70
74534;SHT31;63012;51.096;-115.366;2023-05-10T14:02:35;18.35;44.69
74534;SHT31;63012;51.096;-115.366;2023-05-10T14:05:02;18.34;44.64
74534;SHT31;63012;51.096;-115.366;2023-05-10T14:07:29;18.34;44.60
74534;SHT31;63012;51.096;-115.366;2023-05-10T14:09:57;18.33;44.74
74534;SHT31;63012;51.096;-115.366;2023-05-10T14:12:23;18.35;44.86
74534;SHT31;63012;51.096;-115.366;2023-05-10T14:14:51;18.37;44.90
74534;SHT31;63012;51.096;-115.366;2023-05-10T14:17:18;18.37;44.90
74534;SHT31;63012;51.096;-115.366;2023-05-10T14:19:45;18.37;44.90
74534;SHT31;63012;51.096;-115.366;2023-05-10T14:22:12;18.37;44.89
74534;SHT31;63012;51.096;-115.366;2023-05-10T14:24:39;18.37;44.89
74534;SHT31;63012;51.096;-115.366;2023-05-10T14:27:07;18.37;44.88
74534;SHT31;63012;51.096;-115.366;2023-05-10T14:29:33;18.36;44.90
74534;SHT31;63012;51.096;-115.366;2023-05-10T14:32:01;18.36;44.88
74534;SHT31;63012;51.096;-115.366;2023-05-10T14:34:28;18.36;44.89
74534;SHT31;63012;51.096;-115.366;2023-05-10T14:36:55;18.36;44.89
74534;SHT31;63012;51.096;-115.366;2023-05-10T14:39:22;18.36;44.90
74534;SHT31;63012;51.096;-115.366;2023-05-10T14:41:49;18.35;44.90
74534;SHT31;63012;51.096;-115.366;2023-05-10T14:44:17;18.34;44.90
74534;SHT31;63012;51.096;-115.366;2023-05-10T14:46:44;18.34;44.97
74534;SHT31;63012;51.096;-115.366;2023-05-10T14:49:12;18.33;45.12
74534;SHT31;63012;51.096;-115.366;2023-05-10T14:51:40;18.33;45.20
74534;SHT31;63012;51.096;-115.366;2023-05-10T14:54:06;18.32;45.20
74534;SHT31;63012;51.096;-115.366;2023-05-10T14:56:34;18.32;45.21
74534;SHT31;63012;51.096;-115.366;2023-05-10T14:59:02;18.31;45.17
74534;SHT31;63012;51.096;-115.366;2023-05-10T15:01:29;18.30;45.14
74534;SHT31;63012;51.096;-115.366;2023-05-10T15:03:58;18.31;45.11
74534;SHT31;63012;51.096;-115.366;2023-05-10T15:06:30;18.30;45.13
74534;SHT31;63012;51.096;-115.366;2023-05-10T15:08:59;18.30;45.26
74534;SHT31;63012;51.096;-115.366;2023-05-10T15:11:28;18.31;45.43
74534;SHT31;63012;51.096;-115.366;2023-05-10T15:13:55;18.33;45.50
74534;SHT31;63012;51.096;-115.366;2023-05-10T15:16:22;18.34;45.51
74534;SHT31;63012;51.096;-115.366;2023-05-10T15:18:50;18.35;45.56
74534;SHT31;63012;51.096;-115.366;2023-05-10T15:21:17;18.35;45.59
74534;SHT31;63012;51.096;-115.366;2023-05-10T15:23:44;18.35;45.58
74534;SHT31;63012;51.096;-115.366;2023-05-10T15:26:11;18.35;45.59
74534;SHT31;63012;51.096;-115.366;2023-05-10T15:28:38;18.36;45.60